Terminal Aerodrome Forecast
Issued by NWS Boston, MA

Home | Current Version | Previous Version | Text Only | Print | Product List | Glossary On
Versions: 1 2 3 4 5 6 7 8 9 10 11 12 13 14 15 16 17 18 19 20 21 22 23 24 25 26
000
FTUS41 KBOX 050535
TAFORH
TAF
KORH 050535Z 0506/0606 25013KT P6SM BKN080 WS020/25045KT
     FM051300 30011KT P6SM BKN080
     FM051500 35006KT P6SM BKN200
     FM060200 28005KT P6SM SCT150=

USA.gov is the U.S. government's official web portal to all federal, state and local government web resources and services.